createdAt,value
2019-03-20T00:00:21.171Z,84.80
2019-03-20T00:02:49.743Z,85.00
2019-03-20T00:05:18.255Z,85.30
2019-03-20T00:07:46.699Z,85.70
2019-03-20T00:10:15.126Z,86.00
2019-03-20T00:12:43.637Z,85.80
2019-03-20T00:15:13.712Z,86.10
2019-03-20T00:17:42.176Z,85.90
2019-03-20T00:20:12.927Z,86.00
2019-03-20T00:22:43.103Z,86.40
2019-03-20T00:25:12.175Z,86.50
2019-03-20T00:27:40.895Z,86.10
2019-03-20T00:30:16.428Z,86.60
2019-03-20T00:32:45.031Z,86.80
2019-03-20T00:35:13.555Z,87.00
2019-03-20T00:37:42.082Z,86.70
2019-03-20T00:40:13.590Z,86.80
2019-03-20T00:42:42.030Z,87.70
2019-03-20T00:45:22.968Z,86.90
2019-03-20T00:47:51.401Z,87.30
2019-03-20T00:50:20.593Z,87.10
2019-03-20T00:52:49.037Z,87.10
2019-03-20T00:55:18.345Z,87.10
2019-03-20T00:57:47.175Z,87.10
2019-03-20T01:00:20.731Z,87.50
2019-03-20T01:02:49.303Z,87.40
2019-03-20T01:05:17.998Z,87.50
2019-03-20T01:07:46.662Z,87.80
2019-03-20T01:10:19.999Z,87.40
2019-03-20T01:12:48.523Z,88.10
2019-03-20T01:15:16.952Z,87.90
2019-03-20T01:17:45.717Z,88.20
2019-03-20T01:20:17.266Z,88.40
2019-03-20T01:22:46.071Z,87.90
2019-03-20T01:25:15.360Z,88.10
2019-03-20T01:27:43.795Z,88.10
2019-03-20T01:30:35.750Z,88.40
2019-03-20T01:33:06.914Z,88.30
2019-03-20T01:35:35.711Z,88.40
2019-03-20T01:38:04.732Z,88.20
2019-03-20T01:40:33.184Z,88.10
2019-03-20T01:43:01.755Z,88.20
2019-03-20T01:45:30.264Z,88.60
2019-03-20T01:47:58.711Z,88.60
2019-03-20T01:50:27.162Z,88.80
2019-03-20T01:52:55.612Z,88.90
2019-03-20T01:55:24.113Z,89.00
2019-03-20T01:57:52.567Z,89.00
2019-03-20T02:00:20.985Z,88.90
2019-03-20T02:02:49.434Z,89.00
2019-03-20T02:05:17.875Z,89.20
2019-03-20T02:07:46.380Z,89.10
2019-03-20T02:10:16.981Z,89.10
2019-03-20T02:12:45.421Z,89.30
2019-03-20T02:15:16.069Z,89.50
2019-03-20T02:17:44.508Z,89.30
2019-03-20T02:20:15.189Z,89.40
2019-03-20T02:22:45.249Z,89.40
2019-03-20T02:25:14.341Z,89.60
2019-03-20T02:27:42.847Z,90.00
2019-03-20T02:30:18.555Z,90.00
2019-03-20T02:32:51.328Z,90.10
2019-03-20T02:35:19.829Z,90.10
2019-03-20T02:37:48.282Z,89.80
2019-03-20T02:40:16.787Z,90.00
2019-03-20T02:42:45.249Z,90.10
2019-03-20T02:45:17.174Z,90.00
2019-03-20T02:47:45.760Z,90.10
2019-03-20T02:50:15.172Z,90.20
2019-03-20T02:52:43.666Z,90.20
2019-03-20T02:55:12.662Z,90.20
2019-03-20T02:57:41.095Z,90.30
2019-03-20T03:00:12.757Z,90.10
2019-03-20T03:02:41.183Z,90.50
2019-03-20T03:05:10.471Z,90.60
2019-03-20T03:07:38.904Z,90.40
2019-03-20T03:10:17.770Z,90.50
2019-03-20T03:12:46.622Z,90.50
2019-03-20T03:15:16.463Z,90.80
2019-03-20T03:17:45.063Z,90.50
2019-03-20T03:20:15.468Z,90.90
2019-03-20T03:22:44.224Z,90.80
2019-03-20T03:25:14.473Z,90.90
2019-03-20T03:27:42.989Z,91.00
2019-03-20T03:30:16.488Z,90.90
2019-03-20T03:32:46.542Z,91.00
2019-03-20T03:35:18.690Z,91.00
2019-03-20T03:37:45.816Z,91.00
2019-03-20T03:40:18.438Z,90.80
2019-03-20T03:42:47.217Z,90.90
2019-03-20T03:45:16.676Z,91.00
2019-03-20T03:47:45.368Z,91.00
2019-03-20T03:50:14.037Z,91.00
2019-03-20T03:52:42.629Z,91.00
2019-03-20T03:55:12.882Z,90.90
2019-03-20T03:57:41.478Z,90.90
2019-03-20T04:00:17.451Z,90.90
2019-03-20T04:02:46.027Z,90.80
2019-03-20T04:05:15.105Z,90.80
2019-03-20T04:07:43.614Z,90.70
2019-03-20T04:10:18.429Z,90.80
2019-03-20T04:12:46.923Z,90.80
2019-03-20T04:15:16.307Z,90.80
2019-03-20T04:17:44.776Z,90.70
2019-03-20T04:20:17.112Z,90.70
2019-03-20T04:22:45.686Z,91.00
2019-03-20T04:25:14.266Z,90.60
2019-03-20T04:27:44.252Z,90.60
2019-03-20T04:30:15.002Z,90.60
2019-03-20T04:32:43.520Z,90.60
2019-03-20T04:35:12.286Z,90.60
2019-03-20T04:37:40.753Z,90.60
2019-03-20T04:40:12.271Z,90.50
2019-03-20T04:42:40.782Z,90.60
2019-03-20T04:45:16.806Z,90.60
2019-03-20T04:47:45.275Z,90.60
2019-03-20T04:50:17.245Z,90.60
2019-03-20T04:52:45.753Z,90.60
2019-03-20T04:55:14.281Z,90.60
2019-03-20T04:57:45.428Z,90.60
2019-03-20T05:00:15.658Z,90.50
2019-03-20T05:02:44.101Z,90.50
2019-03-20T05:05:12.686Z,90.50
2019-03-20T05:07:41.131Z,90.60
2019-03-20T05:10:17.816Z,90.50
2019-03-20T05:12:46.260Z,90.50
2019-03-20T05:15:14.757Z,90.40
2019-03-20T05:17:43.292Z,90.50
2019-03-20T05:20:17.036Z,90.50
2019-03-20T05:22:45.492Z,90.50
2019-03-20T05:25:13.933Z,90.60
2019-03-20T05:27:42.368Z,90.60
2019-03-20T05:30:15.420Z,90.70
2019-03-20T05:32:43.875Z,90.70
2019-03-20T05:35:12.679Z,90.60
2019-03-20T05:37:41.112Z,90.60
2019-03-20T05:40:19.195Z,90.60
2019-03-20T05:42:47.651Z,90.60
2019-03-20T05:45:17.727Z,90.70
2019-03-20T05:47:46.214Z,90.80
2019-03-20T05:50:15.831Z,90.80
2019-03-20T05:52:44.267Z,90.80
2019-03-20T05:55:13.048Z,90.80
2019-03-20T05:57:41.559Z,90.80
2019-03-20T06:00:13.510Z,90.80
2019-03-20T06:02:41.941Z,90.90
2019-03-20T06:05:10.438Z,90.90
2019-03-20T06:07:38.883Z,90.90
2019-03-20T06:10:10.350Z,90.80
2019-03-20T06:12:38.850Z,91.00
2019-03-20T06:15:08.236Z,91.00
2019-03-20T06:17:36.666Z,90.90
2019-03-20T06:20:07.963Z,90.90
2019-03-20T06:22:36.462Z,91.10
2019-03-20T06:25:07.653Z,90.80
2019-03-20T06:27:36.130Z,90.90
2019-03-20T06:30:07.995Z,90.90
2019-03-20T06:32:36.436Z,90.90
2019-03-20T06:35:06.901Z,91.00
2019-03-20T06:37:37.029Z,91.00
2019-03-20T06:40:12.669Z,91.00
2019-03-20T06:42:41.109Z,90.90
2019-03-20T06:45:15.604Z,90.90
2019-03-20T06:47:44.025Z,90.90
2019-03-20T06:50:23.969Z,91.10
2019-03-20T06:52:52.419Z,91.00
2019-03-20T06:55:20.864Z,91.00
2019-03-20T06:57:49.311Z,91.10
2019-03-20T07:00:39.239Z,91.20
2019-03-20T07:03:29.053Z,91.10
2019-03-20T07:06:06.673Z,91.10
2019-03-20T07:08:41.139Z,91.10
2019-03-20T07:11:09.472Z,91.20
2019-03-20T07:13:37.922Z,91.10
2019-03-20T07:16:06.417Z,91.30
2019-03-20T07:18:34.870Z,91.20
2019-03-20T07:21:03.299Z,91.20
2019-03-20T07:23:31.726Z,91.40
2019-03-20T07:26:00.165Z,91.30
2019-03-20T07:28:28.603Z,91.40
2019-03-20T07:30:57.042Z,91.20
2019-03-20T07:33:25.484Z,91.30
2019-03-20T07:35:53.993Z,91.30
2019-03-20T07:38:22.428Z,91.30
2019-03-20T07:40:50.883Z,91.40
2019-03-20T07:43:19.315Z,91.30
2019-03-20T07:45:47.822Z,91.40
2019-03-20T07:48:22.066Z,91.40
2019-03-20T07:50:46.422Z,91.40
2019-03-20T07:53:14.868Z,91.40
2019-03-20T07:55:43.311Z,91.40
2019-03-20T07:58:11.771Z,91.30
2019-03-20T08:00:40.511Z,91.40
2019-03-20T08:03:08.948Z,91.30
2019-03-20T08:05:37.470Z,91.30
2019-03-20T08:08:07.684Z,91.30
2019-03-20T08:10:36.070Z,91.30
2019-03-20T08:13:04.511Z,91.20
2019-03-20T08:15:32.950Z,91.20
2019-03-20T08:18:01.407Z,91.10
2019-03-20T08:20:30.699Z,91.10
2019-03-20T08:22:59.150Z,91.10
2019-03-20T08:25:27.595Z,91.00
2019-03-20T08:27:56.038Z,91.00
2019-03-20T08:30:24.475Z,91.00
2019-03-20T08:32:52.919Z,90.90
2019-03-20T08:35:21.356Z,90.80
2019-03-20T08:37:49.793Z,90.70
2019-03-20T08:40:18.891Z,90.50
2019-03-20T08:42:47.327Z,90.40
2019-03-20T08:45:17.779Z,90.30
2019-03-20T08:47:46.287Z,90.30
2019-03-20T08:50:22.971Z,90.20
2019-03-20T08:52:51.690Z,90.10
2019-03-20T08:55:21.074Z,90.20
2019-03-20T08:57:49.900Z,90.20
2019-03-20T09:00:22.590Z,90.20
2019-03-20T09:02:51.045Z,90.20
2019-03-20T09:05:19.526Z,90.20
2019-03-20T09:07:48.068Z,90.20
2019-03-20T09:10:24.457Z,90.30
2019-03-20T09:12:53.639Z,90.40
2019-03-20T09:15:22.336Z,90.40
2019-03-20T09:17:50.851Z,90.30
2019-03-20T09:20:20.335Z,90.20
2019-03-20T09:22:48.938Z,90.20
2019-03-20T09:25:23.396Z,90.60
2019-03-20T09:27:51.893Z,90.10
2019-03-20T09:30:22.266Z,90.10
2019-03-20T09:32:50.839Z,89.90
2019-03-20T09:35:19.419Z,89.90
2019-03-20T09:37:52.390Z,90.00
2019-03-20T09:40:20.005Z,89.90
2019-03-20T09:42:48.450Z,89.80
2019-03-20T09:45:19.009Z,89.10
2019-03-20T09:47:47.446Z,89.20
2019-03-20T09:50:22.647Z,89.20
2019-03-20T09:52:51.161Z,89.00
2019-03-20T09:55:19.611Z,89.00
2019-03-20T09:57:48.159Z,89.20
2019-03-20T10:00:27.606Z,89.40
2019-03-20T10:02:56.051Z,89.40
2019-03-20T10:05:24.849Z,88.90
2019-03-20T10:07:53.284Z,88.90
2019-03-20T10:10:26.108Z,89.00
2019-03-20T10:12:54.557Z,89.10
2019-03-20T10:15:27.091Z,89.00
2019-03-20T10:17:55.603Z,88.80
2019-03-20T10:20:24.114Z,89.00
2019-03-20T10:22:53.891Z,89.00
2019-03-20T10:25:22.400Z,89.10
2019-03-20T10:27:51.956Z,89.10
2019-03-20T10:30:27.774Z,89.20
2019-03-20T10:32:56.301Z,89.40
2019-03-20T10:35:24.816Z,89.70
2019-03-20T10:37:53.277Z,89.50
2019-03-20T10:40:23.527Z,89.70
2019-03-20T10:42:52.070Z,89.70
2019-03-20T10:45:20.919Z,89.70
2019-03-20T10:47:52.744Z,89.90
2019-03-20T10:50:22.202Z,89.80
2019-03-20T10:52:50.691Z,90.00
2019-03-20T10:55:19.214Z,89.90
2019-03-20T10:57:47.746Z,90.00
2019-03-20T11:00:24.271Z,90.00
2019-03-20T11:02:52.877Z,90.00
2019-03-20T11:05:21.655Z,90.00
2019-03-20T11:07:50.503Z,90.10
2019-03-20T11:10:29.461Z,90.10
2019-03-20T11:12:57.918Z,90.10
2019-03-20T11:15:29.369Z,90.10
2019-03-20T11:17:56.956Z,90.00
2019-03-20T11:20:25.850Z,89.80
2019-03-20T11:22:58.307Z,90.20
2019-03-20T11:25:29.935Z,89.90
2019-03-20T11:27:58.380Z,89.90
2019-03-20T11:30:34.332Z,89.80
2019-03-20T11:33:02.844Z,90.00
2019-03-20T11:35:31.293Z,89.90
2019-03-20T11:37:59.868Z,89.70
2019-03-20T11:40:30.073Z,89.90
2019-03-20T11:42:58.508Z,90.10
2019-03-20T11:45:46.293Z,89.60
2019-03-20T11:48:14.721Z,89.60
2019-03-20T11:50:44.707Z,89.50
2019-03-20T11:53:13.159Z,89.40
2019-03-20T11:55:41.675Z,89.50
2019-03-20T11:58:10.122Z,89.60
2019-03-20T12:00:38.557Z,89.60
2019-03-20T12:03:07.082Z,89.50
2019-03-20T12:05:35.533Z,89.60
2019-03-20T12:08:04.655Z,89.60
2019-03-20T12:10:33.907Z,89.70
2019-03-20T12:13:03.970Z,89.70
2019-03-20T12:15:32.426Z,89.80
2019-03-20T12:18:00.947Z,89.70
2019-03-20T12:20:29.390Z,89.90
2019-03-20T12:22:57.833Z,89.80
2019-03-20T12:25:31.511Z,89.80
2019-03-20T12:28:00.211Z,89.80
2019-03-20T12:30:30.505Z,89.70
2019-03-20T12:32:58.937Z,89.70
2019-03-20T12:35:29.729Z,89.80
2019-03-20T12:37:58.175Z,89.90
2019-03-20T12:40:30.830Z,89.90
2019-03-20T12:42:59.618Z,89.90
2019-03-20T12:45:33.492Z,89.90
2019-03-20T12:48:03.573Z,89.80
2019-03-20T12:50:32.020Z,89.80
2019-03-20T12:53:01.756Z,89.90
2019-03-20T12:55:31.186Z,90.00
2019-03-20T12:58:00.623Z,89.80
2019-03-20T13:00:29.135Z,90.00
2019-03-20T13:02:57.654Z,89.90
2019-03-20T13:05:26.103Z,90.00
2019-03-20T13:07:54.554Z,90.00
2019-03-20T13:10:24.254Z,89.80
2019-03-20T13:12:52.831Z,89.80
2019-03-20T13:15:26.116Z,89.80
2019-03-20T13:17:55.590Z,90.00
2019-03-20T13:20:24.116Z,89.90
2019-03-20T13:23:10.906Z,89.80
2019-03-20T13:25:39.355Z,89.80
2019-03-20T13:28:07.790Z,89.70
2019-03-20T13:30:57.329Z,89.80
2019-03-20T13:33:26.367Z,89.80
2019-03-20T13:35:54.907Z,89.60
2019-03-20T13:38:23.390Z,89.70
2019-03-20T13:40:51.835Z,89.50
2019-03-20T13:43:20.308Z,89.50
2019-03-20T13:45:48.802Z,89.50
2019-03-20T13:48:17.267Z,90.00
2019-03-20T13:50:45.703Z,89.50
2019-03-20T13:53:15.396Z,89.40
2019-03-20T13:55:44.076Z,89.30
2019-03-20T13:58:12.603Z,89.40
2019-03-20T14:00:41.060Z,89.50
2019-03-20T14:03:09.509Z,89.70
2019-03-20T14:05:37.953Z,89.60
2019-03-20T14:08:06.399Z,89.60
2019-03-20T14:10:49.555Z,89.50
2019-03-20T14:13:06.014Z,89.30
2019-03-20T14:15:34.462Z,89.10
2019-03-20T14:18:02.898Z,89.20
2019-03-20T14:20:33.452Z,88.90
2019-03-20T14:23:01.903Z,89.10
2019-03-20T14:25:30.427Z,89.00
2019-03-20T14:27:58.871Z,88.90
2019-03-20T14:30:29.225Z,88.90
2019-03-20T14:32:59.277Z,89.30
2019-03-20T14:35:27.799Z,88.60
2019-03-20T14:38:02.758Z,88.50
2019-03-20T14:40:36.245Z,88.70
2019-03-20T14:43:02.537Z,88.50
2019-03-20T14:45:31.060Z,88.50
2019-03-20T14:47:59.501Z,88.20
2019-03-20T14:50:29.279Z,88.30
2019-03-20T14:52:57.725Z,88.00
2019-03-20T14:55:26.173Z,88.20
2019-03-20T14:57:54.622Z,87.90
2019-03-20T15:00:27.096Z,88.20
2019-03-20T15:02:56.329Z,88.10
2019-03-20T15:05:27.980Z,87.90
2019-03-20T15:07:58.401Z,87.80
2019-03-20T15:10:28.895Z,87.80
2019-03-20T15:12:57.782Z,87.80
2019-03-20T15:15:32.121Z,87.90
2019-03-20T15:18:02.224Z,87.90
2019-03-20T15:20:30.669Z,87.80
2019-03-20T15:22:59.098Z,88.00
2019-03-20T15:25:27.615Z,87.80
2019-03-20T15:27:57.687Z,87.70
2019-03-20T15:30:30.182Z,88.50
2019-03-20T15:33:05.107Z,87.70
2019-03-20T15:35:33.551Z,87.70
2019-03-20T15:38:01.997Z,87.60
2019-03-20T15:40:31.169Z,87.70
2019-03-20T15:42:59.627Z,87.80
2019-03-20T15:45:28.087Z,87.90
2019-03-20T15:47:56.541Z,87.80
2019-03-20T15:50:28.175Z,87.50
2019-03-20T15:52:57.974Z,87.40
2019-03-20T15:55:29.509Z,87.20
2019-03-20T15:58:01.494Z,87.40
2019-03-20T16:00:30.031Z,87.10
2019-03-20T16:03:07.722Z,87.20
2019-03-20T16:05:36.402Z,87.40
2019-03-20T16:08:04.927Z,87.30
2019-03-20T16:10:33.387Z,87.40
2019-03-20T16:13:01.848Z,87.40
2019-03-20T16:15:30.375Z,87.30
2019-03-20T16:17:58.815Z,87.40
2019-03-20T16:20:28.363Z,87.40
2019-03-20T16:22:56.779Z,87.10
2019-03-20T16:25:25.511Z,87.10
2019-03-20T16:27:53.962Z,87.00
2019-03-20T16:30:32.786Z,86.70
2019-03-20T16:33:01.232Z,86.70
2019-03-20T16:35:29.675Z,86.80
2019-03-20T16:37:58.127Z,86.70
2019-03-20T16:40:32.574Z,86.70
2019-03-20T16:43:01.036Z,86.70
2019-03-20T16:45:34.467Z,86.40
2019-03-20T16:48:03.181Z,86.70
2019-03-20T16:50:31.639Z,86.60
2019-03-20T16:53:00.410Z,86.60
2019-03-20T16:55:28.872Z,86.60
2019-03-20T16:57:57.328Z,86.60
2019-03-20T17:00:28.284Z,86.70
2019-03-20T17:02:57.106Z,86.80
2019-03-20T17:05:26.777Z,87.50
2019-03-20T17:07:55.415Z,87.00
2019-03-20T17:10:26.929Z,87.00
2019-03-20T17:12:55.390Z,86.90
2019-03-20T17:15:28.863Z,87.00
2019-03-20T17:17:57.314Z,87.10
2019-03-20T17:20:25.770Z,87.20
2019-03-20T17:22:54.211Z,87.10
2019-03-20T17:25:22.807Z,87.20
2019-03-20T17:27:51.250Z,87.10
2019-03-20T17:30:25.127Z,87.20
2019-03-20T17:32:53.589Z,87.10
2019-03-20T17:35:22.197Z,87.10
2019-03-20T17:37:50.643Z,87.20
2019-03-20T17:40:23.373Z,87.20
2019-03-20T17:42:51.883Z,87.30
2019-03-20T17:45:22.488Z,87.20
2019-03-20T17:47:50.995Z,87.20
2019-03-20T17:50:32.759Z,87.30
2019-03-20T17:53:02.243Z,87.20
2019-03-20T17:55:46.049Z,87.30
2019-03-20T17:58:33.863Z,87.30
2019-03-20T18:01:02.349Z,87.50
2019-03-20T18:03:30.807Z,87.50
2019-03-20T18:05:59.255Z,87.60
2019-03-20T18:08:27.699Z,87.50
2019-03-20T18:10:56.152Z,87.60
2019-03-20T18:13:24.601Z,87.70
2019-03-20T18:15:53.082Z,87.80
2019-03-20T18:18:21.586Z,87.80
2019-03-20T18:20:50.024Z,87.80
2019-03-20T18:23:18.486Z,87.90
2019-03-20T18:25:46.918Z,88.30
2019-03-20T18:28:15.379Z,89.00
2019-03-20T18:30:44.268Z,88.40
2019-03-20T18:33:14.255Z,88.30
2019-03-20T18:35:42.715Z,88.50
2019-03-20T18:38:11.144Z,88.40
2019-03-20T18:40:39.673Z,88.30
2019-03-20T18:43:08.119Z,88.50
2019-03-20T18:45:36.550Z,88.50
2019-03-20T18:48:05.353Z,88.60
2019-03-20T18:50:33.872Z,88.50
2019-03-20T18:53:02.329Z,88.70
2019-03-20T18:55:30.840Z,89.40
2019-03-20T18:57:59.383Z,89.30
2019-03-20T19:00:30.031Z,89.10
2019-03-20T19:03:04.375Z,89.10
2019-03-20T19:05:36.023Z,89.60
2019-03-20T19:08:05.706Z,89.60
2019-03-20T19:10:34.235Z,89.50
2019-03-20T19:13:02.782Z,90.10
2019-03-20T19:15:31.296Z,90.00
2019-03-20T19:17:59.761Z,90.00
2019-03-20T19:20:28.281Z,89.80
2019-03-20T19:22:56.730Z,90.10
2019-03-20T19:25:26.796Z,90.10
2019-03-20T19:27:55.255Z,90.10
2019-03-20T19:30:25.234Z,90.30
2019-03-20T19:32:53.696Z,90.20
2019-03-20T19:35:22.288Z,90.50
2019-03-20T19:37:50.755Z,90.60
2019-03-20T19:40:20.442Z,90.80
2019-03-20T19:42:51.211Z,90.80
2019-03-20T19:45:19.808Z,90.90
2019-03-20T19:47:48.518Z,91.00
2019-03-20T19:50:19.167Z,90.90
2019-03-20T19:52:47.686Z,91.00
2019-03-20T19:55:19.194Z,91.10
2019-03-20T19:57:47.631Z,91.20
2019-03-20T20:00:18.467Z,91.00
2019-03-20T20:02:46.995Z,91.30
2019-03-20T20:05:16.373Z,91.20
2019-03-20T20:07:44.937Z,91.20
2019-03-20T20:10:16.475Z,91.20
2019-03-20T20:12:45.062Z,91.30
2019-03-20T20:15:27.431Z,91.20
2019-03-20T20:18:15.216Z,91.40
2019-03-20T20:20:43.656Z,91.40
2019-03-20T20:23:12.111Z,91.30
2019-03-20T20:25:40.809Z,91.30
2019-03-20T20:28:11.259Z,91.40
2019-03-20T20:30:39.438Z,91.30
2019-03-20T20:33:07.878Z,91.20
2019-03-20T20:35:36.331Z,91.10
2019-03-20T20:38:04.775Z,91.10
2019-03-20T20:40:33.232Z,91.00
2019-03-20T20:43:01.691Z,91.00
2019-03-20T20:45:30.145Z,91.00
2019-03-20T20:47:58.603Z,90.90
2019-03-20T20:50:27.051Z,90.80
2019-03-20T20:52:55.486Z,90.90
2019-03-20T20:55:24.699Z,90.90
2019-03-20T20:57:53.168Z,90.90
2019-03-20T21:00:22.359Z,90.80
2019-03-20T21:02:51.051Z,90.90
2019-03-20T21:05:19.476Z,90.90
2019-03-20T21:07:48.049Z,90.90
2019-03-20T21:10:30.223Z,91.00
2019-03-20T21:12:58.658Z,91.00
2019-03-20T21:15:35.645Z,90.80
2019-03-20T21:18:16.246Z,90.90
2019-03-20T21:20:45.531Z,91.20
2019-03-20T21:23:39.913Z,91.10
2019-03-20T21:26:10.568Z,91.10
2019-03-20T21:28:58.636Z,91.40
2019-03-20T21:31:30.570Z,91.50
2019-03-20T21:34:02.406Z,91.50
2019-03-20T21:36:59.887Z,91.40
2019-03-20T21:39:28.331Z,91.50
2019-03-20T21:42:09.111Z,91.40
2019-03-20T21:44:57.439Z,91.60
2019-03-20T21:47:35.717Z,91.40
2019-03-20T21:50:26.817Z,91.60
2019-03-20T21:52:55.276Z,91.50
2019-03-20T21:55:29.714Z,91.50
2019-03-20T21:58:01.241Z,91.60
2019-03-20T22:00:50.987Z,91.50
2019-03-20T22:03:19.443Z,91.60
2019-03-20T22:05:53.874Z,91.50
2019-03-20T22:08:22.323Z,91.50
2019-03-20T22:10:59.986Z,91.50
2019-03-20T22:13:34.524Z,91.60
2019-03-20T22:16:14.577Z,91.60
2019-03-20T22:19:12.571Z,91.70
2019-03-20T22:21:46.886Z,91.60
2019-03-20T22:24:24.151Z,91.70
2019-03-20T22:27:15.235Z,91.70
2019-03-20T22:29:43.683Z,91.80
2019-03-20T22:32:29.698Z,91.80
2019-03-20T22:35:23.957Z,91.80
2019-03-20T22:37:53.590Z,92.00
2019-03-20T22:40:34.030Z,91.90
2019-03-20T22:43:06.611Z,91.80
2019-03-20T22:45:53.340Z,91.80
2019-03-20T22:48:46.281Z,91.90
2019-03-20T22:51:25.935Z,91.80
2019-03-20T22:54:21.840Z,92.00
2019-03-20T22:57:13.168Z,92.00
2019-03-20T22:59:41.632Z,91.90
2019-03-20T23:02:19.306Z,92.10
2019-03-20T23:04:53.099Z,92.00
2019-03-20T23:07:21.552Z,91.90
2019-03-20T23:09:49.990Z,92.00
2019-03-20T23:12:20.347Z,92.10
2019-03-20T23:14:48.777Z,92.10
2019-03-20T23:17:17.360Z,92.20
2019-03-20T23:19:46.749Z,92.30
2019-03-20T23:22:19.353Z,92.30
2019-03-20T23:24:47.806Z,92.40
2019-03-20T23:27:22.785Z,92.40
2019-03-20T23:29:51.221Z,92.40
2019-03-20T23:32:20.045Z,92.40
2019-03-20T23:34:48.493Z,92.30
2019-03-20T23:37:16.968Z,92.30
2019-03-20T23:39:45.458Z,92.40
2019-03-20T23:42:13.908Z,92.40
2019-03-20T23:44:42.355Z,92.40
2019-03-20T23:47:10.793Z,92.50
2019-03-20T23:49:39.239Z,92.40
2019-03-20T23:52:07.681Z,92.50
2019-03-20T23:54:44.351Z,92.60
2019-03-20T23:57:12.793Z,92.50
2019-03-20T23:59:41.235Z,92.50
